1M5

Portland Municipal Airport

Portland, Tennessee, USA
METAR K1M5 250055Z AUTO 15007KT 10SM SCT006 BKN043 OVC110 22/21 A3002 RMK A01
Observed Flight Rules
Sep-25 @ 00:55 UTC (31 minutes ago) Visual Flight Rules
Wind Visibility Clouds
150° at 7 knots 10 miles
  • Scattered at 600' AGL
  • Broken at 4,300' AGL
  • Overcast at 11,000' AGL
Temperatures Readings
Current 22°C / 72°F
Dewpoint 21°C / 70°F
Humidity 94%
Altimeter 30.02" Hg
Pressure 1017 hPa
Elevation 250
METAR K1M5 250055Z AUTO 15007KT 10SM SCT006 BKN043 OVC110 22/21 A3002 RMK A01
Observed Flight Rules
Sep-25 @ 00:55 UTC
(31 minutes ago)
VFR
Wind Visibility
150° at 7 knots 10 miles
Clouds
  • Scattered at 600' AGL
  • Broken at 4,300' AGL
  • Overcast at 11,000' AGL
Temperature Dewpoint
22°C / 72°F 21°C / 70°F
Humidity Altimeter Pressure
94% 30.02" Hg 1017 hPa